Latest Weather Observations for Horsley Park

IDN60801

Issued at 10:32 pm EDT Wednesday 18 January 2017 (issued every 30 minutes, with the page automatically refreshed every 10 minutes)

About weather observations | Map of weather stations | Latest weather observations for NSW | Other Formats
Station Details ID: 067119 Name: HORSLEY PARK EQUESTRIAN CENTRE AWS Lat: -33.85 Lon: 150.86 Height: 100.0 m
Data from the previous 72 hours. | See also: Recent months at Horsley Park
Date/Time
EDT
Temp
°C
App
Temp
°C
Dew
Point
°C
Rel
Hum
%
Delta-T
°C
Wind Press
QNH
hPa
Press
MSL
hPa
Rain since
9am
mm
Dir  Spd
km/h
Gust
km/h
Spd
kts
Gust
kts
18/10:30pm 20.8 20.0 15.1 70 3.4 SSE 13 19 7 10 - - 0.0
18/10:00pm 20.9 20.5 15.2 70 3.4 SE 11 20 6 11 - - 0.0
18/09:30pm 20.8 19.7 15.4 71 3.2 SSE 15 24 8 13 - - 0.0
18/09:00pm 21.1 20.5 15.6 71 3.3 SSE 13 22 7 12 - - 0.0
18/08:30pm 21.6 21.8 15.7 69 3.5 SSE 9 17 5 9 - - 0.0
18/08:00pm 21.6 20.6 15.7 69 3.5 SSE 15 28 8 15 - - 0.0
18/07:30pm 21.8 20.3 15.4 67 3.8 SSE 17 26 9 14 - - 0.0
18/07:00pm 22.1 20.3 15.9 68 3.7 SSE 20 32 11 17 - - 0.0
18/06:30pm 22.7 21.0 16.3 67 3.9 SSE 20 35 11 19 - - 0.0
18/06:00pm 23.8 21.9 16.6 64 4.4 SSE 22 33 12 18 - - 0.0
18/05:30pm 24.3 22.4 16.8 63 4.6 SE 22 35 12 19 - - 0.0
18/05:00pm 25.2 21.9 16.9 60 5.2 SE 30 41 16 22 - - 0.0
18/04:30pm 26.8 24.2 17.8 57 5.7 SE 28 41 15 22 - - 0.0
18/04:00pm 28.3 26.0 17.5 52 6.8 SE 26 43 14 23 - - 0.0
18/03:30pm 29.0 24.4 16.2 46 8.0 SE 35 52 19 28 - - 0.0
18/03:19pm 29.9 26.1 16.7 45 8.3 SE 32 50 17 27 - - 0.0
18/03:00pm 29.9 25.4 16.3 43 8.5 SE 35 46 19 25 - - 0.0
18/02:30pm 30.9 26.7 16.1 41 9.3 SE 33 46 18 25 - - 0.0
18/02:00pm 32.0 28.4 16.3 39 9.9 ESE 30 41 16 22 - - 0.0
18/01:30pm 33.4 30.7 16.7 36 10.6 ESE 26 39 14 21 - - 0.0
18/01:00pm 35.4 32.7 15.7 31 12.4 E 24 35 13 19 - - 0.0
18/12:54pm 34.7 33.1 15.1 31 12.3 E 17 32 9 17 - - 0.0
18/12:30pm 39.7 36.4 11.7 19 17.0 NW 20 35 11 19 - - 0.0
18/12:00pm 40.2 36.4 11.3 18 17.5 WNW 22 43 12 23 - - 0.0
18/11:30am 40.0 36.9 13.5 21 16.5 NW 22 39 12 21 - - 0.0
18/11:00am 39.3 36.3 13.7 22 15.9 NW 22 37 12 20 - - 0.0
18/10:30am 38.6 36.0 13.8 23 15.4 NW 20 33 11 18 - - 0.0
18/10:00am 38.4 36.8 14.9 25 14.8 NW 17 30 9 16 - - 0.0
18/09:30am 37.4 34.4 14.7 26 14.2 WNW 24 39 13 21 - - 0.0
18/09:00am 37.5 35.4 15.3 26 14.0 WNW 20 35 11 19 - - 0.0
18/08:30am 36.4 33.8 15.0 28 13.4 WNW 22 37 12 20 - - 0.0
18/08:00am 35.3 34.9 15.1 30 12.7 NW 11 28 6 15 - - 0.0
18/07:30am 33.5 34.2 15.5 34 11.3 NNW 6 13 3 7 - - 0.0
18/07:00am 31.5 32.6 15.5 38 9.9 NNW 4 9 2 5 - - 0.0
18/06:30am 29.9 31.8 16.7 45 8.3 NNW 2 7 1 4 - - 0.0
18/06:00am 28.8 31.1 16.7 48 7.6 CALM 0 2 0 1 - - 0.0
18/05:30am 28.9 31.0 17.1 49 7.4 N 2 7 1 4 - - 0.0
18/05:00am 28.4 31.0 17.6 52 6.9 CALM 0 4 0 2 - - 0.0
18/04:30am 28.4 31.2 17.9 53 6.7 CALM 0 2 0 1 - - 0.0
18/04:00am 28.1 31.0 18.2 55 6.3 CALM 0 0 0 0 - - 0.0
18/03:30am 28.2 31.1 18.3 55 6.3 CALM 0 0 0 0 - - 0.0
18/03:00am 28.0 31.3 19.0 58 5.8 CALM 0 2 0 1 - - 0.0
18/02:30am 27.5 30.7 18.8 59 5.6 CALM 0 0 0 0 - - 0.0
18/02:00am 27.1 30.3 18.9 61 5.3 CALM 0 0 0 0 - - 0.0
18/01:30am 26.7 30.2 19.6 65 4.6 CALM 0 0 0 0 - - 0.0
18/01:00am 27.2 30.6 19.3 62 5.1 CALM 0 0 0 0 - - 0.0
18/12:30am 28.4 31.7 19.1 57 6.0 CALM 0 0 0 0 - - 0.0
18/12:00am 29.3 32.6 19.0 53 6.7 CALM 0 0 0 0 - - 0.0
 
Date/Time
EDT
Temp
°C
App
Temp
°C
Dew
Point
°C
Rel
Hum
%
Delta-T
°C
Wind Press
QNH
hPa
Press
MSL
hPa
Rain since
9am
mm
Dir  Spd
km/h
Gust
km/h
Spd
kts
Gust
kts
17/11:30pm 29.9 33.0 18.7 51 7.3 CALM 0 2 0 1 - - 0.0
17/11:00pm 30.8 33.0 16.4 42 9.1 CALM 0 0 0 0 - - 0.0
17/10:30pm 31.5 33.5 15.9 39 9.8 CALM 0 0 0 0 - - 0.0
17/10:00pm 31.8 33.5 15.3 37 10.2 CALM 0 0 0 0 - - 0.0
17/09:30pm 31.9 33.7 15.4 37 10.3 CALM 0 0 0 0 - - 0.0
17/09:00pm 33.7 34.6 15.2 33 11.5 S 4 9 2 5 - - 0.0
17/08:30pm 34.3 33.9 16.2 34 11.5 SSW 13 22 7 12 - - 0.0
17/08:00pm 34.5 34.9 16.4 34 11.5 NE 9 17 5 9 - - 0.0
17/07:30pm 35.1 35.0 15.9 31 12.2 NE 11 19 6 10 - - 0.0
17/07:00pm 36.0 34.5 16.2 31 12.6 NE 19 26 10 14 - - 0.0
17/06:30pm 37.2 36.6 16.7 29 13.2 NE 15 30 8 16 - - 0.0
17/06:00pm 37.6 36.6 16.5 28 13.6 NE 17 32 9 17 - - 0.0
17/05:30pm 38.5 36.7 15.6 26 14.6 NE 19 28 10 15 - - 0.0
17/05:00pm 38.7 36.8 15.7 25 14.7 NE 20 28 11 15 - - 0.0
17/04:30pm 39.8 40.4 15.4 23 15.6 ENE 6 13 3 7 - - 0.0
17/04:00pm 40.5 41.1 13.2 20 17.0 W 2 9 1 5 - - 0.0
17/03:30pm 40.8 41.9 15.6 23 16.2 NNW 4 17 2 9 - - 0.0
17/03:00pm 39.3 40.8 15.6 24 15.1 SE 2 7 1 4 - - 0.0
17/02:30pm 39.6 39.9 14.6 23 15.8 WSW 6 13 3 7 - - 0.0
17/02:00pm 39.6 40.5 15.2 23 15.5 N 4 19 2 10 - - 0.0
17/01:30pm 38.4 39.3 16.1 27 14.3 NE 6 15 3 8 - - 0.0
17/01:00pm 37.5 38.8 17.0 30 13.3 N 6 15 3 8 - - 0.0
17/12:30pm 36.8 38.0 16.9 31 12.8 ENE 6 11 3 6 - - 0.0
17/12:00pm 35.5 36.6 17.2 33 11.8 NE 7 13 4 7 - - 0.0
17/11:30am 32.9 34.2 17.1 39 10.1 N 6 15 3 8 - - 0.0
17/11:00am 30.9 32.1 16.9 43 8.9 N 6 13 3 7 - - 0.0
17/10:30am 29.9 31.3 17.4 47 7.9 NE 6 15 3 8 - - 0.0
17/10:00am 27.9 29.8 17.7 53 6.5 N 4 7 2 4 - - 0.0
17/09:30am 26.2 28.3 18.1 61 5.1 NNW 4 11 2 6 - - 0.0
17/09:00am 25.2 27.5 18.6 67 4.2 N 4 7 2 4 - - 0.0
17/08:30am 23.1 24.8 18.0 73 3.2 NW 6 9 3 5 - - 0.0
17/08:00am 22.4 25.1 18.6 79 2.4 NNW 2 6 1 3 - - 0.0
17/07:30am 21.6 25.1 19.5 88 1.3 CALM 0 0 0 0 - - 0.0
17/07:00am 19.1 22.0 18.3 95 0.5 CALM 0 0 0 0 - - 0.0
17/06:30am 17.8 20.1 16.7 93 0.7 CALM 0 0 0 0 - - 0.0
17/06:00am 18.2 20.3 17.2 94 0.6 WNW 2 4 1 2 - - 0.0
17/05:30am 18.5 20.5 17.0 91 0.9 WNW 2 6 1 3 - - 0.0
17/05:00am 18.7 21.1 17.9 95 0.5 SW 2 6 1 3 - - 0.0
17/04:30am 18.7 21.3 17.5 93 0.7 CALM 0 0 0 0 - - 0.0
17/04:00am 18.7 21.3 17.4 92 0.8 CALM 0 0 0 0 - - 0.0
17/03:30am 19.0 21.6 17.5 91 0.9 CALM 0 0 0 0 - - 0.0
17/03:00am 19.0 21.4 17.1 89 1.2 CALM 0 0 0 0 - - 0.0
17/02:30am 19.4 22.0 17.5 89 1.2 CALM 0 0 0 0 - - 0.0
17/02:00am 19.3 21.8 17.3 88 1.2 CALM 0 0 0 0 - - 0.0
17/01:30am 19.4 21.9 17.2 87 1.3 CALM 0 0 0 0 - - 0.0
17/01:00am 19.7 22.3 17.5 87 1.4 CALM 0 0 0 0 - - 0.0
17/12:30am 19.7 22.1 17.1 85 1.6 CALM 0 0 0 0 - - 0.0
17/12:00am 21.1 23.3 17.5 80 2.2 ENE 2 4 1 2 - - 0.0
 
Date/Time
EDT
Temp
°C
App
Temp
°C
Dew
Point
°C
Rel
Hum
%
Delta-T
°C
Wind Press
QNH
hPa
Press
MSL
hPa
Rain since
9am
mm
Dir  Spd
km/h
Gust
km/h
Spd
kts
Gust
kts
16/11:30pm 21.6 23.4 17.4 77 2.6 ENE 4 6 2 3 - - 0.0
16/11:00pm 21.8 23.5 17.2 75 2.8 NE 4 6 2 3 - - 0.0
16/10:30pm 22.0 23.5 17.6 76 2.7 ENE 6 9 3 5 - - 0.0
16/10:00pm 22.2 24.0 17.3 74 3.0 ENE 4 6 2 3 - - 0.0
16/09:30pm 22.5 23.8 17.2 72 3.3 E 6 9 3 5 - - 0.0
16/09:00pm 22.9 24.2 17.1 70 3.6 E 6 7 3 4 - - 0.0
16/08:30pm 23.9 24.4 17.4 67 4.0 E 11 15 6 8 - - 0.0
16/08:00pm 24.7 25.1 17.2 63 4.7 E 11 15 6 8 - - 0.0
16/07:30pm 25.8 25.9 17.4 59 5.3 E 13 20 7 11 - - 0.0
16/07:00pm 26.6 25.8 17.1 56 5.9 E 17 24 9 13 - - 0.0
16/06:30pm 27.4 26.2 17.0 53 6.5 E 19 28 10 15 - - 0.0
16/06:00pm 28.0 26.1 16.6 50 7.1 ENE 22 30 12 16 - - 0.0
16/05:30pm 29.3 28.0 16.8 47 7.9 E 19 28 10 15 - - 0.0
16/05:00pm 30.0 28.4 17.5 47 8.0 E 22 33 12 18 - - 0.0
16/04:30pm 30.8 29.2 17.5 45 8.5 E 22 33 12 18 - - 0.0
16/04:00pm 31.7 30.7 17.9 43 8.9 E 20 30 11 16 - - 0.0
16/03:30pm 32.1 30.4 17.2 41 9.5 ESE 22 28 12 15 - - 0.0
16/03:00pm 32.5 32.3 16.8 39 10.0 ESE 13 26 7 14 - - 0.0
16/02:30pm 32.1 31.5 14.7 35 10.7 NE 11 19 6 10 - - 0.0
16/02:00pm 32.0 31.7 15.5 37 10.3 NE 11 20 6 11 - - 0.0
16/01:30pm 30.9 30.3 15.7 39 9.5 NE 13 22 7 12 - - 0.0
16/01:00pm 29.9 29.4 16.0 43 8.7 NE 13 20 7 11 - - 0.0
16/12:30pm 29.5 29.1 16.3 45 8.2 NNE 13 24 7 13 - - 0.0
16/12:00pm 27.2 26.3 15.9 50 7.0 NNW 15 26 8 14 - - 0.0
16/11:30am 27.3 26.8 16.0 50 7.0 N 13 22 7 12 - - 0.0
16/11:00am 27.5 27.1 17.1 53 6.5 NNE 15 26 8 14 - - 0.0
16/10:30am 25.1 24.8 16.5 59 5.3 N 13 20 7 11 - - 0.0
16/10:00am 26.0 26.5 17.4 59 5.4 N 11 24 6 13 - - 0.0
16/09:30am 24.5 24.0 17.0 63 4.7 NNE 15 26 8 14 - - 0.0
16/09:00am 23.4 22.9 16.9 67 4.0 N 15 22 8 12 - - 0.0
16/08:30am 22.7 22.1 16.7 69 3.7 N 15 22 8 12 - - 0.0
16/08:00am 22.5 22.8 17.0 71 3.4 N 11 17 6 9 - - 0.0
16/07:30am 21.3 22.2 16.7 75 2.8 NNW 7 9 4 5 - - 0.0
16/07:00am 20.4 21.5 16.6 79 2.3 NNW 6 9 3 5 - - 0.0
16/06:30am 18.9 20.6 16.3 85 1.6 NNW 2 6 1 3 - - 0.0
16/06:00am 19.4 20.8 16.4 83 1.8 N 4 6 2 3 - - 0.0
16/05:30am 19.4 20.7 16.2 82 1.9 N 4 4 2 2 - - 0.0
16/05:00am 19.9 21.9 16.0 78 2.3 CALM 0 6 0 3 - - 0.0
16/04:30am 20.6 21.5 16.2 76 2.7 N 6 11 3 6 - - 0.0
16/04:00am 21.1 21.9 16.3 74 2.9 N 7 13 4 7 - - 0.0
16/03:30am 21.6 22.5 16.6 73 3.0 N 7 13 4 7 - - 0.0
16/03:00am 21.7 22.6 16.6 73 3.1 N 7 11 4 6 - - 0.0
16/02:30am 21.8 22.7 16.5 72 3.2 N 7 13 4 7 - - 0.0
16/02:00am 21.9 22.8 16.6 72 3.2 N 7 13 4 7 - - 0.0
16/01:30am 22.0 23.1 16.7 72 3.2 NNE 6 9 3 5 - - 0.0
16/01:00am 22.1 23.3 16.8 72 3.2 N 6 9 3 5 - - 0.0
16/12:30am 22.2 23.1 16.7 71 3.4 NNE 7 13 4 7 - - 0.0
16/12:00am 22.3 22.5 16.8 71 3.4 NNE 11 17 6 9 - - 0.0
 
Date/Time
EDT
Temp
°C
App
Temp
°C
Dew
Point
°C
Rel
Hum
%
Delta-T
°C
Wind Press
QNH
hPa
Press
MSL
hPa
Rain since
9am
mm
Dir  Spd
km/h
Gust
km/h
Spd
kts
Gust
kts
15/11:30pm 22.2 23.1 16.7 71 3.4 NE 7 13 4 7 - - 0.0
15/11:00pm 22.2 22.4 16.7 71 3.4 NE 11 17 6 9 - - 0.0

Other Formats:

Comma delimited format used in spreadsheet applications
http://www.bom.gov.au/fwo/IDN60801/IDN60801.94760.axf

JavaScript Object Notation format (JSON) in row-major order
http://www.bom.gov.au/fwo/IDN60801/IDN60801.94760.json